Time;durP1;ratioP1;P1;durP2;ratioP2;P2;SDS_P1;SDS_P2;PMS_P1;PMS_P2;Temp;Humidity;BMP_temperature;BMP_pressure;BME280_temperature;BME280_humidity;BME280_pressure;Samples;Min_cycle;Max_cycle;Signal;HPM_P1;HPM_P2
2021/12/22 00:01:05;;;;;;;10.53;4.67;;;;;;;-9.30;63.52;100786.89;1668813;86;21261;-60
2021/12/22 00:04:11;;;;;;;7.55;4.47;;;;;;;-9.27;63.69;100793.43;1668769;85;21336;-61
2021/12/22 00:07:19;;;;;;;10.75;4.80;;;;;;;-9.25;63.48;100796.03;1668948;86;21216;-60
2021/12/22 00:10:26;;;;;;;12.43;6.40;;;;;;;-9.26;63.48;100796.52;1669384;81;21245;-60
2021/12/22 00:13:32;;;;;;;10.93;5.65;;;;;;;-9.24;63.43;100797.31;1666506;85;21897;-61
2021/12/22 00:16:37;;;;;;;12.98;6.40;;;;;;;-9.14;63.32;100811.18;1666708;86;21897;-59
2021/12/22 00:19:45;;;;;;;9.05;4.85;;;;;;;-9.14;63.32;100811.18;1666497;85;21488;-60
2021/12/22 00:22:50;;;;;;;11.78;5.95;;;;;;;-9.13;63.12;100809.81;1666729;85;21364;-60
2021/12/22 00:25:58;;;;;;;9.68;4.40;;;;;;;-9.16;62.83;100818.33;1666627;86;21245;-60
2021/12/22 00:29:08;;;;;;;11.65;4.72;;;;;;;-9.17;62.85;100817.45;1666702;85;21395;-60
2021/12/22 00:32:16;;;;;;;9.00;4.50;;;;;;;-9.19;62.81;100817.94;1666715;86;21375;-60
2021/12/22 00:35:23;;;;;;;7.22;4.30;;;;;;;-9.19;62.79;100821.91;1666641;86;21912;-59
2021/12/22 00:38:29;;;;;;;5.92;4.22;;;;;;;-9.18;62.67;100832.07;1666754;85;21237;-60
2021/12/22 00:41:35;;;;;;;5.12;4.28;;;;;;;-9.16;62.70;100833.75;1666627;86;21857;-59
2021/12/22 00:44:42;;;;;;;7.10;4.37;;;;;;;-9.15;62.60;100825.36;1666651;85;21253;-60
2021/12/22 00:47:49;;;;;;;7.85;3.52;;;;;;;-9.11;62.47;100830.53;1666577;85;21371;-61
2021/12/22 00:50:56;;;;;;;7.42;4.30;;;;;;;-9.12;62.33;100827.47;1666494;86;21383;-60
2021/12/22 00:54:01;;;;;;;6.42;3.90;;;;;;;-9.12;62.29;100826.59;1666579;85;21568;-60
2021/12/22 00:57:06;;;;;;;8.33;4.17;;;;;;;-9.15;62.13;100822.70;1668368;84;21336;-60
2021/12/22 01:00:13;;;;;;;8.28;4.15;;;;;;;-9.19;62.11;100823.24;1666591;86;21374;-61
2021/12/22 01:03:19;;;;;;;6.25;3.98;;;;;;;-9.19;62.15;100820.59;1666756;85;21403;-60
2021/12/22 01:06:25;;;;;;;8.78;4.35;;;;;;;-9.17;62.09;100821.88;1636854;86;21429;-60
2021/12/22 01:09:31;;;;;;;4.78;3.52;;;;;;;-9.17;62.20;100820.10;1666703;85;21245;-60
2021/12/22 01:12:36;;;;;;;5.05;3.80;;;;;;;-9.13;62.19;100820.41;1649560;84;21281;-59
2021/12/22 01:15:42;;;;;;;7.47;4.30;;;;;;;-9.14;62.05;100823.98;1666589;86;21198;-62
2021/12/22 01:18:51;;;;;;;8.35;4.12;;;;;;;-9.17;62.01;100820.10;1666767;85;21293;-60
2021/12/22 01:22:06;;;;;;;8.23;3.95;;;;;;;-9.19;62.04;100823.69;1666570;86;21431;-61
2021/12/22 01:25:13;;;;;;;9.83;4.75;;;;;;;-9.21;62.08;100818.42;1666471;85;21456;-60
2021/12/22 01:28:26;;;;;;;13.80;5.85;;;;;;;-9.26;62.13;100824.34;1666569;85;21437;-60
2021/12/22 01:31:27;;;;;;;11.00;4.83;;;;;;;-9.29;62.09;100823.06;1666629;86;21222;-60
2021/12/22 01:34:35;;;;;;;8.70;4.72;;;;;;;-9.36;62.33;100826.38;1666557;85;21387;-60
2021/12/22 01:37:43;;;;;;;7.35;4.30;;;;;;;-9.39;62.59;100841.00;1666519;86;21360;-60
2021/12/22 01:40:51;;;;;;;6.47;4.22;;;;;;;-9.35;62.68;100837.81;1666610;86;21378;-60
2021/12/22 01:44:00;;;;;;;8.60;4.30;;;;;;;-9.34;62.77;100836.92;1666637;85;21368;-60
2021/12/22 01:50:57;;;;;;;7.17;4.33;;;;;;;-9.31;62.82;100836.36;1666633;86;21426;-60
2021/12/22 01:54:07;;;;;;;7.08;4.12;;;;;;;-9.29;62.82;100845.59;1666576;85;21391;-61
2021/12/22 01:57:13;;;;;;;10.48;5.20;;;;;;;-9.26;62.92;100851.29;1666729;85;21427;-60
2021/12/22 02:00:20;;;;;;;9.43;5.10;;;;;;;-9.27;62.89;100849.08;1651430;86;21221;-61
2021/12/22 02:03:26;;;;;;;7.10;4.33;;;;;;;-9.25;62.92;100856.55;1666505;85;21408;-61
2021/12/22 02:06:33;;;;;;;8.50;5.08;;;;;;;-9.23;62.99;100857.38;1666584;86;21375;-60
2021/12/22 02:13:15;;;;;;;11.90;5.78;;;;;;;-9.15;62.77;100846.56;1677835;81;21225;-60
2021/12/22 02:16:26;;;;;;;10.85;5.70;;;;;;;-9.14;62.65;100846.96;1678647;85;21378;-60
2021/12/22 02:19:28;;;;;;;11.00;5.55;;;;;;;-9.14;62.71;100845.19;1678707;85;21359;-61
2021/12/22 02:22:36;;;;;;;11.28;5.53;;;;;;;-9.08;62.74;100845.50;1678690;85;21864;-61
2021/12/22 02:25:51;;;;;;;6.92;4.53;;;;;;;-9.05;62.65;100848.91;1678826;85;21342;-60
2021/12/22 02:29:05;;;;;;;9.38;4.70;;;;;;;-9.03;62.51;100844.88;1678800;85;21378;-59
2021/12/22 02:32:19;;;;;;;9.05;5.65;;;;;;;-9.02;62.43;100842.66;1670872;85;21889;-60
2021/12/22 02:35:26;;;;;;;9.98;5.17;;;;;;;-8.98;62.41;100853.58;1653862;86;21375;-60
2021/12/22 02:38:27;;;;;;;10.10;5.22;;;;;;;-8.95;62.38;100857.02;1658221;86;21228;-61
2021/12/22 02:41:36;;;;;;;8.73;5.10;;;;;;;-8.91;62.17;100856.01;1658722;86;21239;-60
2021/12/22 02:44:41;;;;;;;12.35;5.53;;;;;;;-8.90;62.15;100847.61;1658678;86;21240;-60
2021/12/22 02:47:50;;;;;;;9.90;5.35;;;;;;;-8.90;62.00;100845.84;1658539;85;21207;-59
2021/12/22 02:50:57;;;;;;;17.55;6.15;;;;;;;-8.92;61.93;100846.33;1641709;86;21794;-60
2021/12/22 02:54:11;;;;;;;9.03;5.20;;;;;;;-8.95;61.84;100846.42;1643091;86;21287;-59
2021/12/22 02:57:25;;;;;;;8.25;4.78;;;;;;;-8.99;61.71;100848.77;1658629;86;21765;-59
2021/12/22 03:00:34;;;;;;;10.82;4.53;;;;;;;-9.05;61.68;100846.25;1658613;86;21769;-60
2021/12/22 03:04:00;;;;;;;8.43;4.83;;;;;;;-9.07;61.57;100844.57;1658634;86;21299;-60
2021/12/22 03:06:52;;;;;;;9.50;5.03;;;;;;;-9.10;61.52;100845.51;1658590;86;21381;-60
2021/12/22 03:10:04;;;;;;;8.88;4.08;;;;;;;-9.12;61.48;100859.28;1658691;85;21243;-60
2021/12/22 03:13:09;;;;;;;8.83;5.15;;;;;;;-9.14;61.48;100861.09;1656799;83;21230;-61
2021/12/22 03:16:16;;;;;;;7.62;4.60;;;;;;;-9.17;61.40;100858.53;1649254;87;21231;-60
2021/12/22 03:19:25;;;;;;;10.08;4.60;;;;;;;-9.19;61.30;100861.67;1649078;86;21444;-61
2021/12/22 03:22:31;;;;;;;9.28;4.53;;;;;;;-9.27;61.33;100864.98;1649294;87;21401;-61
2021/12/22 03:25:39;;;;;;;9.65;4.75;;;;;;;-9.27;61.33;100864.98;1649200;87;21743;-61
2021/12/22 03:28:46;;;;;;;10.65;4.72;;;;;;;-9.32;61.35;100862.91;1649159;87;21434;-62
2021/12/22 03:31:53;;;;;;;7.90;4.10;;;;;;;-9.36;61.57;100871.42;1649288;87;21362;-60
2021/12/22 03:35:00;;;;;;;8.28;4.83;;;;;;;-9.41;61.42;100875.08;1649327;86;21369;-61
2021/12/22 03:38:06;;;;;;;10.88;4.53;;;;;;;-9.41;61.59;100869.78;1649104;86;21371;-61
2021/12/22 03:41:13;;;;;;;10.65;4.85;;;;;;;-9.43;61.63;100875.13;1649272;87;21424;-61
2021/12/22 03:44:18;;;;;;;8.35;5.00;;;;;;;-9.45;61.74;100872.11;1654393;86;21860;-59
2021/12/22 03:47:23;;;;;;;11.43;5.40;;;;;;;-9.49;62.00;100886.33;1654752;86;21288;-59
2021/12/22 03:50:32;;;;;;;10.13;5.70;;;;;;;-9.49;62.00;100886.33;1654544;87;21244;-61
2021/12/22 03:53:38;;;;;;;8.28;5.00;;;;;;;-9.51;62.19;100889.46;1654682;85;21324;-61
2021/12/22 03:56:45;;;;;;;11.15;5.20;;;;;;;-9.51;62.36;100901.38;1675710;85;21394;-61
2021/12/22 03:59:52;;;;;;;11.40;5.92;;;;;;;-9.53;62.53;100896.61;1647836;86;21418;-60
2021/12/22 04:02:57;;;;;;;11.25;6.33;;;;;;;-9.55;62.78;100895.77;1668677;85;21226;-61
2021/12/22 04:06:02;;;;;;;9.45;4.58;;;;;;;-9.54;62.97;100894.84;1668720;86;21244;-60
2021/12/22 04:09:13;;;;;;;9.38;5.17;;;;;;;-9.53;63.41;100902.75;1668917;85;21222;-61
2021/12/22 04:12:18;;;;;;;11.55;5.80;;;;;;;-9.53;63.41;100902.75;1668383;86;21284;-60
2021/12/22 04:15:23;;;;;;;10.35;5.67;;;;;;;-9.52;63.81;100904.52;1673582;81;21253;-62
2021/12/22 04:18:29;;;;;;;11.38;5.15;;;;;;;-9.53;64.10;100901.91;1673038;85;21245;-60
2021/12/22 04:21:35;;;;;;;9.88;5.67;;;;;;;-9.54;63.94;100914.27;1673125;86;22053;-60
2021/12/22 04:24:41;;;;;;;7.20;4.70;;;;;;;-9.54;63.94;100914.27;1673030;85;21236;-62
2021/12/22 04:27:46;;;;;;;10.03;5.90;;;;;;;-9.59;64.27;100902.03;1673274;85;21267;-59
2021/12/22 04:30:55;;;;;;;8.98;4.87;;;;;;;-9.66;64.57;100911.05;1673395;86;21734;-60
2021/12/22 04:34:03;;;;;;;8.28;4.58;;;;;;;-9.67;64.99;100922.56;1673561;85;21237;-60
2021/12/22 04:37:08;;;;;;;7.47;4.42;;;;;;;-9.72;64.75;100914.70;1673538;86;21237;-61
2021/12/22 04:40:15;;;;;;;9.83;5.75;;;;;;;-9.72;64.75;100914.70;1673443;85;21232;-60
2021/12/22 04:43:20;;;;;;;9.45;5.33;;;;;;;-9.69;65.36;100925.70;1673379;85;21256;-60
2021/12/22 04:46:25;;;;;;;14.23;7.72;;;;;;;-9.69;65.36;100925.70;1673324;86;21240;-60
2021/12/22 04:49:30;;;;;;;9.25;5.78;;;;;;;-9.68;65.50;100923.45;1658726;86;21225;-60
2021/12/22 04:52:48;;;;;;;18.75;11.12;;;;;;;-9.67;65.59;100922.56;1665356;86;21256;-60
2021/12/22 04:55:51;;;;;;;8.53;5.90;;;;;;;-9.66;65.76;100921.20;1686349;84;21969;-60
2021/12/22 04:58:58;;;;;;;12.60;5.65;;;;;;;-9.67;65.95;100939.30;1673504;85;21730;-62
2021/12/22 05:02:05;;;;;;;9.90;5.72;;;;;;;-9.67;65.95;100939.30;1673122;86;21233;-60
2021/12/22 05:05:18;;;;;;;10.72;5.90;;;;;;;-9.71;66.07;100936.33;1672811;85;21313;-61
2021/12/22 05:08:23;;;;;;;;;;;;;;;-9.70;66.19;100939.83;1657814;86;21462;-60
2021/12/22 05:11:30;;;;;;;19.07;7.80;;;;;;;-9.67;66.51;100951.70;1656037;86;20344;-61
2021/12/22 05:14:39;;;;;;;17.40;8.23;;;;;;;-9.67;66.51;100951.70;1671161;85;21411;-61
2021/12/22 05:20:51;;;;;;;9.95;6.28;;;;;;;-9.64;66.76;100956.44;1671159;86;21368;-60
2021/12/22 05:24:01;;;;;;;14.18;6.47;;;;;;;-9.66;66.69;100963.58;1652135;86;21411;-60
2021/12/22 05:27:08;;;;;;;11.43;6.22;;;;;;;-9.66;66.77;100965.34;1673056;85;21268;-60
2021/12/22 05:30:18;;;;;;;10.38;6.53;;;;;;;-9.67;66.88;100964.47;1673103;86;21327;-60
2021/12/22 05:33:23;;;;;;;12.03;7.20;;;;;;;-9.66;66.98;100958.73;1645121;86;21272;-61
2021/12/22 05:36:30;;;;;;;14.93;7.17;;;;;;;-9.68;67.06;100968.03;1634286;86;21236;-60
2021/12/22 05:39:37;;;;;;;12.45;6.85;;;;;;;-9.70;67.13;100972.48;1671161;86;21503;-60
2021/12/22 05:42:42;;;;;;;13.45;7.03;;;;;;;-9.75;67.25;100968.22;1651825;87;21422;-60
2021/12/22 05:45:50;;;;;;;13.88;7.10;;;;;;;-9.81;67.45;100977.61;1651565;87;21442;-60
2021/12/22 05:48:59;;;;;;;15.30;7.47;;;;;;;-9.85;67.35;100986.54;1651119;87;21256;-60
2021/12/22 05:52:05;;;;;;;13.35;7.42;;;;;;;-9.85;67.35;100986.54;1670790;85;22047;-59
2021/12/22 05:55:11;;;;;;;14.43;8.55;;;;;;;-9.85;67.74;100979.47;1654077;86;21377;-59
2021/12/22 05:58:18;;;;;;;16.12;8.30;;;;;;;-9.85;67.85;100984.77;1649579;86;21229;-60
2021/12/22 06:01:27;;;;;;;13.70;8.03;;;;;;;-9.81;67.92;100992.16;1691028;84;21579;-59
2021/12/22 06:04:32;;;;;;;15.18;7.72;;;;;;;-9.76;68.03;100987.64;1648981;86;21300;-57
2021/12/22 06:07:37;;;;;;;11.45;7.10;;;;;;;-9.76;68.03;100987.64;1645998;87;21647;-59
2021/12/22 06:10:46;;;;;;;15.55;7.20;;;;;;;-9.69;68.11;101000.70;1662348;85;21560;-59
2021/12/22 06:13:51;;;;;;;13.98;7.15;;;;;;;-9.61;68.03;100989.95;1669638;85;21226;-59
2021/12/22 06:16:57;;;;;;;11.80;6.87;;;;;;;-9.47;67.64;101005.95;1676581;80;21280;-60
2021/12/22 06:20:03;;;;;;;12.82;7.10;;;;;;;-9.47;67.64;101005.95;1662195;85;21256;-61
2021/12/22 06:23:12;;;;;;;13.38;7.22;;;;;;;-9.41;67.38;101018.16;1671989;85;21252;-60
2021/12/22 06:26:17;;;;;;;12.35;6.95;;;;;;;-9.41;67.38;101018.16;1674067;85;21251;-59
2021/12/22 06:29:26;;;;;;;21.87;11.05;;;;;;;-9.44;67.44;101023.53;1648657;85;21250;-60
2021/12/22 06:32:31;;;;;;;16.65;9.88;;;;;;;-9.44;67.51;101020.44;1663161;86;21592;-61
2021/12/22 06:35:36;;;;;;;21.87;10.70;;;;;;;-9.39;67.49;101025.62;1665803;86;21217;-61
2021/12/22 06:38:41;;;;;;;21.27;9.60;;;;;;;-9.31;67.57;101032.94;1657285;86;21245;-61
2021/12/22 06:41:46;;;;;;;18.20;9.43;;;;;;;-9.21;67.57;101019.02;1651452;86;21275;-61
2021/12/22 06:44:52;;;;;;;19.90;10.82;;;;;;;-9.01;67.38;101044.13;1651584;85;21237;-61
2021/12/22 06:47:58;;;;;;;18.85;8.85;;;;;;;-9.01;67.38;101044.13;1652630;87;21212;-60
2021/12/22 06:51:03;;;;;;;17.25;10.78;;;;;;;-8.89;67.25;101039.83;1648512;86;21602;-61
2021/12/22 06:54:09;;;;;;;15.60;8.15;;;;;;;-8.80;66.98;101054.64;1653131;87;21264;-60
2021/12/22 06:57:21;;;;;;;19.55;8.90;;;;;;;-8.77;66.76;101063.84;1663483;85;21229;-61
2021/12/22 07:00:28;;;;;;;19.30;9.53;;;;;;;-8.72;66.66;101057.97;1653029;86;21232;-59
2021/12/22 07:03:38;;;;;;;20.95;11.20;;;;;;;-8.67;66.44;101071.52;1666730;85;21280;-59
2021/12/22 07:06:45;;;;;;;18.75;11.08;;;;;;;-8.65;66.41;101060.42;1671154;85;21221;-61
2021/12/22 07:09:51;;;;;;;26.07;10.95;;;;;;;-8.60;66.21;101063.83;1671452;85;21633;-60
2021/12/22 07:12:56;;;;;;;14.98;8.23;;;;;;;-8.61;66.07;101062.06;1660295;86;21608;-61
2021/12/22 07:16:08;;;;;;;16.05;9.33;;;;;;;-8.58;66.08;101066.00;1665442;85;21917;-61
2021/12/22 07:19:13;;;;;;;15.05;8.88;;;;;;;-8.56;65.93;101072.11;1652161;83;21805;-61
2021/12/22 07:22:20;;;;;;;22.90;11.20;;;;;;;-8.54;66.01;101067.64;1667419;85;21256;-60
2021/12/22 07:25:28;;;;;;;18.27;9.60;;;;;;;-8.48;66.07;101066.63;1651365;86;21217;-62
2021/12/22 07:28:37;;;;;;;18.98;9.63;;;;;;;-8.38;66.04;101074.29;1649103;85;21357;-62
2021/12/22 07:31:44;;;;;;;16.15;9.15;;;;;;;-8.37;65.69;101092.42;1637833;86;21345;-61
2021/12/22 07:35:10;;;;;;;11.35;7.30;;;;;;;-8.45;65.50;101083.31;1626636;86;21285;-59
2021/12/22 07:38:43;;;;;;;14.68;8.60;;;;;;;-8.42;65.67;101082.38;1628758;87;21233;-62
2021/12/22 07:41:48;;;;;;;13.95;7.15;;;;;;;-8.38;65.65;101088.00;1628698;87;21802;-61
2021/12/22 07:44:54;;;;;;;18.02;9.38;;;;;;;-8.40;65.21;101085.39;1642240;87;21304;-63
2021/12/22 07:48:00;;;;;;;17.67;9.40;;;;;;;-8.48;65.21;101088.70;1667793;85;21221;-61
2021/12/22 07:51:08;;;;;;;19.07;10.03;;;;;;;-8.46;65.41;101086.01;1629785;87;21310;-61
2021/12/22 07:54:19;;;;;;;15.85;10.03;;;;;;;-8.39;65.24;101085.83;1621657;87;21332;-60
2021/12/22 07:57:35;;;;;;;14.30;7.97;;;;;;;-8.33;65.43;101104.24;1628717;87;21284;-60
2021/12/22 08:00:42;;;;;;;13.00;7.15;;;;;;;-8.25;65.38;101089.42;1619201;86;21727;-61
2021/12/22 08:03:50;;;;;;;14.63;7.95;;;;;;;-8.24;65.04;101096.02;1625228;87;21465;-60
2021/12/22 08:06:56;;;;;;;13.85;8.23;;;;;;;-8.23;65.01;101086.28;1631966;87;21336;-61
2021/12/22 08:10:03;;;;;;;16.15;8.18;;;;;;;-8.18;65.02;101090.50;1598891;87;21280;-62
2021/12/22 08:13:10;;;;;;;20.50;9.83;;;;;;;-8.19;64.77;101098.52;1629261;87;21325;-61
2021/12/22 08:16:16;;;;;;;18.15;8.50;;;;;;;-8.17;64.86;101089.61;1609285;86;21767;-60
2021/12/22 08:19:23;;;;;;;15.72;8.58;;;;;;;-8.10;64.80;101095.59;1649834;83;21236;-60
2021/12/22 08:22:28;;;;;;;14.80;8.53;;;;;;;-8.03;64.77;101094.08;1675169;84;21221;-61
2021/12/22 08:25:34;;;;;;;13.70;8.00;;;;;;;-7.99;64.65;101085.09;1644555;87;22142;-60
2021/12/22 08:28:40;;;;;;;19.85;8.83;;;;;;;-7.93;64.56;101091.55;1621564;86;21595;-61
2021/12/22 08:31:48;;;;;;;17.00;8.95;;;;;;;-7.89;64.38;101095.00;1670716;85;21248;-59
2021/12/22 08:34:56;;;;;;;22.87;9.90;;;;;;;-7.87;64.05;101089.20;1664835;86;21201;-60
2021/12/22 08:41:22;;;;;;;26.40;11.30;;;;;;;-7.76;63.99;101093.74;1583034;89;21652;-59
2021/12/22 08:44:33;;;;;;;23.32;9.60;;;;;;;-7.72;63.86;101099.36;1632247;87;21296;-60
2021/12/22 08:47:39;;;;;;;20.77;9.40;;;;;;;-7.72;63.51;101110.88;1669556;86;21794;-61
2021/12/22 08:50:44;;;;;;;13.13;8.43;;;;;;;-7.69;63.48;101097.09;1651202;86;21252;-59
2021/12/22 08:53:51;;;;;;;12.40;7.22;;;;;;;-7.55;63.45;101089.13;1674337;85;21282;-61
2021/12/22 08:56:59;;;;;;;13.08;7.75;;;;;;;-7.32;63.38;101103.03;1665418;85;21228;-59
2021/12/22 09:00:06;;;;;;;19.12;11.22;;;;;;;-7.06;63.12;101116.41;1644487;86;21258;-60
2021/12/22 09:03:13;;;;;;;13.15;8.20;;;;;;;-7.00;61.91;101112.22;1643349;87;21816;-61
2021/12/22 09:06:24;;;;;;;11.78;7.58;;;;;;;-7.05;61.46;101109.72;1647286;84;21280;-61
2021/12/22 09:09:31;;;;;;;24.27;12.90;;;;;;;-7.15;60.98;101114.05;1666157;84;21276;-59
2021/12/22 09:12:38;;;;;;;17.62;8.15;;;;;;;-7.18;61.21;101114.15;1653790;86;21232;-60
2021/12/22 09:15:45;;;;;;;22.62;9.65;;;;;;;-7.17;61.02;101110.55;1663616;85;21217;-60
2021/12/22 09:18:53;;;;;;;17.35;9.23;;;;;;;-7.25;60.91;101108.59;1654919;86;21259;-61
2021/12/22 09:22:10;;;;;;;11.50;7.20;;;;;;;-7.25;60.95;101110.80;1680525;85;21304;-61
2021/12/22 09:25:17;;;;;;;44.35;20.17;;;;;;;-7.19;60.98;101112.39;1672094;86;21575;-58
2021/12/22 09:28:23;;;;;;;15.43;7.58;;;;;;;-7.14;60.88;101107.35;1653345;86;21904;-61
2021/12/22 09:31:30;;;;;;;18.12;8.15;;;;;;;-7.12;60.73;101111.29;1655272;86;21240;-60
2021/12/22 09:34:36;;;;;;;16.55;7.97;;;;;;;-7.07;60.68;101100.05;1669786;85;21244;-61
2021/12/22 09:37:41;;;;;;;17.20;8.65;;;;;;;-7.10;60.44;101096.16;1650009;87;21269;-60
2021/12/22 09:40:53;;;;;;;17.20;8.20;;;;;;;-7.17;60.38;101098.59;1670408;84;21483;-60
2021/12/22 09:44:00;;;;;;;13.98;6.75;;;;;;;-7.18;60.49;101095.53;1672467;84;21241;-61
2021/12/22 09:47:06;;;;;;;16.73;7.53;;;;;;;-7.16;60.23;101104.31;1672161;85;21224;-60
2021/12/22 09:50:13;;;;;;;14.53;7.58;;;;;;;-7.20;60.20;101094.25;1640459;86;21232;-62
2021/12/22 09:53:23;;;;;;;16.65;7.70;;;;;;;-7.17;60.16;101095.93;1645424;86;21603;-61
2021/12/22 09:56:33;;;;;;;10.50;6.08;;;;;;;-7.11;60.33;101087.75;1653134;86;21347;-59
2021/12/22 09:59:43;;;;;;;12.65;5.80;;;;;;;-7.01;60.28;101090.09;1628425;88;21801;-62
2021/12/22 10:02:49;;;;;;;12.35;7.22;;;;;;;-7.01;59.89;101092.75;1647997;86;21761;-61
2021/12/22 10:05:58;;;;;;;13.22;6.90;;;;;;;-7.07;59.58;101093.41;1662804;85;21238;-59
2021/12/22 10:09:10;;;;;;;10.55;7.25;;;;;;;-7.09;59.88;101089.47;1651210;85;21652;-60
2021/12/22 10:12:25;;;;;;;15.40;7.17;;;;;;;-6.97;59.99;101090.39;1642342;85;21580;-60
2021/12/22 10:15:42;;;;;;;9.38;5.75;;;;;;;-6.88;59.76;101105.20;1663687;85;21273;-59
2021/12/22 10:18:50;;;;;;;13.18;6.72;;;;;;;-6.90;58.82;101103.04;1649384;86;21847;-60
2021/12/22 10:22:10;;;;;;;13.48;7.20;;;;;;;-6.95;58.70;101086.34;1637298;84;21804;-60
2021/12/22 10:25:23;;;;;;;13.78;9.65;;;;;;;-6.95;58.68;101080.58;1599336;87;21279;-59
2021/12/22 10:28:31;;;;;;;10.82;6.40;;;;;;;-6.89;58.64;101090.13;1671823;85;21282;-60
2021/12/22 10:31:49;;;;;;;12.13;6.37;;;;;;;-6.76;58.44;101096.80;1667647;85;21262;-60
2021/12/22 10:35:12;;;;;;;16.23;7.90;;;;;;;-6.73;58.31;101094.92;1668509;85;21246;-59
2021/12/22 10:38:22;;;;;;;13.98;7.08;;;;;;;-6.65;58.18;101095.98;1644968;87;21319;-59
2021/12/22 10:41:29;;;;;;;12.18;6.35;;;;;;;-6.58;57.70;101097.53;1648867;84;21231;-60
2021/12/22 10:44:45;;;;;;;8.93;5.80;;;;;;;-6.52;57.52;101107.97;1615868;88;22174;-59
2021/12/22 10:51:41;;;;;;;14.83;7.42;;;;;;;-6.47;57.02;101102.88;1644590;87;21797;-60
2021/12/22 10:54:50;;;;;;;12.20;6.55;;;;;;;-6.33;56.90;101110.42;1656526;86;21234;-60
2021/12/22 10:57:55;;;;;;;10.58;6.50;;;;;;;-6.35;56.68;101110.92;1671768;85;21237;-59
2021/12/22 11:01:18;;;;;;;12.45;6.97;;;;;;;-6.47;56.44;101107.36;1663231;86;21277;-60
2021/12/22 11:04:32;;;;;;;11.93;5.47;;;;;;;-6.52;56.50;101111.52;1670688;86;21780;-60
2021/12/22 11:07:41;;;;;;;10.88;5.97;;;;;;;-6.44;56.69;101104.11;1632640;86;21725;-60
2021/12/22 11:10:53;;;;;;;8.00;5.25;;;;;;;-6.27;56.56;101107.53;1631885;86;21790;-59
2021/12/22 11:14:14;;;;;;;17.35;7.83;;;;;;;-6.14;56.45;101114.19;1642347;86;21608;-60
2021/12/22 11:17:22;;;;;;;9.50;4.95;;;;;;;-5.97;56.17;101119.78;1671445;85;21185;-59
2021/12/22 11:20:32;;;;;;;9.75;5.65;;;;;;;-5.81;55.97;101116.94;1670436;86;21225;-58
2021/12/22 11:23:38;;;;;;;10.35;5.75;;;;;;;-5.68;55.26;101124.02;1675210;82;21734;-57
2021/12/22 11:26:44;;;;;;;8.70;5.45;;;;;;;-5.74;54.57;101131.77;1675016;85;21203;-59
2021/12/22 11:30:00;;;;;;;21.75;11.57;;;;;;;-5.93;54.25;101126.73;1667371;85;21275;-58
2021/12/22 11:33:07;;;;;;;9.15;5.58;;;;;;;-6.05;54.52;101131.17;1652339;85;22166;-59
2021/12/22 11:36:14;;;;;;;11.60;6.37;;;;;;;-6.17;54.66;101133.39;1650920;86;21239;-59
2021/12/22 11:39:22;;;;;;;9.10;5.37;;;;;;;-6.25;54.85;101138.99;1669152;84;21587;-60
2021/12/22 11:42:37;;;;;;;9.40;4.67;;;;;;;-6.29;54.80;101145.33;1652091;86;21777;-59
2021/12/22 11:45:39;;;;;;;10.13;5.95;;;;;;;-6.36;54.74;101147.81;1666694;85;21225;-61
2021/12/22 11:48:46;;;;;;;15.25;6.67;;;;;;;-6.38;55.00;101145.20;1645070;86;21814;-59
2021/12/22 11:51:54;;;;;;;13.03;6.55;;;;;;;-6.38;55.21;101146.53;1651150;84;21274;-60
2021/12/22 11:55:20;;;;;;;12.85;5.80;;;;;;;-6.32;55.42;101153.42;1644269;86;21242;-60
2021/12/22 11:58:32;;;;;;;22.22;9.50;;;;;;;-6.24;55.57;101156.25;1663455;84;21825;-61
2021/12/22 12:01:39;;;;;;;23.73;10.37;;;;;;;-6.22;55.46;101150.88;1625276;85;21243;-59
2021/12/22 12:04:48;;;;;;;15.85;8.50;;;;;;;-6.19;55.61;101156.09;1646529;86;21290;-60
2021/12/22 12:08:07;;;;;;;19.15;6.97;;;;;;;-6.20;55.63;101157.88;1664084;84;21221;-59
2021/12/22 12:11:15;;;;;;;18.20;8.48;;;;;;;-6.24;55.79;101162.03;1650679;86;21235;-59
2021/12/22 12:21:42;;;;;;;13.15;6.05;;;;;;;-6.36;56.05;101157.13;1651921;87;21365;-59
2021/12/22 12:24:45;;;;;;;17.02;7.47;;;;;;;-6.40;56.28;101147.48;1652623;83;21237;-60
2021/12/22 12:28:03;;;;;;;11.90;6.22;;;;;;;-6.42;56.34;101169.33;1649928;85;21276;-59
2021/12/22 12:31:20;;;;;;;15.03;6.05;;;;;;;-6.46;56.45;101155.69;1649874;86;21825;-59
2021/12/22 12:34:31;;;;;;;15.20;6.20;;;;;;;-6.50;56.56;101158.05;1653491;85;21350;-58
2021/12/22 12:38:05;;;;;;;13.30;6.55;;;;;;;-6.56;56.54;101172.87;1630971;85;21826;-61
2021/12/22 12:41:20;;;;;;;12.65;6.05;;;;;;;-6.56;56.38;101168.87;1610661;88;21536;-59
2021/12/22 12:44:36;;;;;;;9.45;5.22;;;;;;;-6.66;55.52;101180.77;1664709;84;21252;-59
2021/12/22 12:47:42;;;;;;;24.80;10.28;;;;;;;-6.78;55.37;101182.47;1652129;86;21209;-61
2021/12/22 12:50:49;;;;;;;25.80;10.25;;;;;;;-6.89;55.68;101180.15;1649659;86;21354;-60
2021/12/22 12:53:57;;;;;;;14.33;8.03;;;;;;;-6.88;56.17;101179.70;1650839;85;21833;-59
2021/12/22 12:57:10;;;;;;;19.70;8.85;;;;;;;-6.83;56.45;101187.05;1664934;85;21292;-60
2021/12/22 13:00:33;;;;;;;17.45;9.08;;;;;;;-6.81;56.54;101186.11;1658807;85;21758;-59
2021/12/22 13:03:59;;;;;;;14.80;7.28;;;;;;;-6.74;56.63;101187.64;1703671;84;21232;-60
2021/12/22 13:07:23;;;;;;;21.65;9.10;;;;;;;-6.73;56.41;101196.50;1663269;85;21235;-59
2021/12/22 13:10:33;;;;;;;14.95;6.65;;;;;;;-6.84;56.18;101198.63;1641485;85;21217;-60
2021/12/22 13:15:45;;;;;;;24.57;9.80;;;;;;;-6.96;56.36;101214.50;1627090;85;21537;-59
2021/12/22 13:16:57;;;;;;;20.27;8.35;;;;;;;-6.99;56.45;101207.09;1652283;86;21603;-62
2021/12/22 13:20:04;;;;;;;29.02;10.08;;;;;;;-7.03;56.78;101209.42;1652903;86;21766;-61
2021/12/22 13:23:31;;;;;;;16.67;7.05;;;;;;;-7.03;56.95;101220.94;1651928;86;21784;-60
2021/12/22 13:26:36;;;;;;;29.52;10.05;;;;;;;-7.03;57.12;101213.41;1625448;87;21903;-61
2021/12/22 13:29:41;;;;;;;25.08;9.38;;;;;;;-7.02;57.24;101203.17;1625175;87;21787;-60
2021/12/22 13:33:15;;;;;;;21.42;8.98;;;;;;;-7.00;57.25;101210.20;1625516;87;21756;-61
2021/12/22 13:36:26;;;;;;;21.42;8.83;;;;;;;-6.97;57.49;101218.09;1625212;88;21565;-62
2021/12/22 13:39:32;;;;;;;9.03;5.28;;;;;;;-7.00;57.64;101220.84;1625325;86;21277;-60
2021/12/22 13:42:44;;;;;;;22.40;8.88;;;;;;;-7.03;57.91;101229.38;1641065;86;21232;-61
2021/12/22 13:45:55;;;;;;;13.50;6.58;;;;;;;-7.10;57.93;101222.02;1628510;88;21249;-60
2021/12/22 13:49:04;;;;;;;10.88;6.35;;;;;;;-7.13;58.02;101238.52;1628520;87;21234;-61
2021/12/22 13:52:11;;;;;;;19.20;8.90;;;;;;;-7.19;57.77;101224.97;1640694;87;22102;-61
2021/12/22 13:55:20;;;;;;;17.25;8.05;;;;;;;-7.24;58.43;101231.31;1628199;88;22044;-60
2021/12/22 13:58:51;;;;;;;13.30;7.75;;;;;;;-7.26;58.63;101238.02;1637786;87;21277;-60
2021/12/22 14:01:58;;;;;;;20.70;9.10;;;;;;;-7.26;58.10;101231.84;1637611;87;21241;-60
2021/12/22 14:05:06;;;;;;;19.60;8.10;;;;;;;-7.25;58.06;101237.12;1612481;88;21298;-61
2021/12/22 14:08:10;;;;;;;10.95;5.28;;;;;;;-7.21;57.72;101237.88;1624673;88;21260;-60
2021/12/22 14:11:43;;;;;;;12.60;6.47;;;;;;;-7.20;57.43;101243.63;1624058;88;21588;-58
2021/12/22 14:14:54;;;;;;;12.28;6.10;;;;;;;-7.21;57.26;101243.19;1591072;88;21293;-60
2021/12/22 14:18:06;;;;;;;12.28;5.97;;;;;;;-7.19;57.47;101241.38;1621027;87;21268;-60
2021/12/22 14:21:13;;;;;;;10.98;5.45;;;;;;;-7.19;57.66;101246.69;1620801;87;21740;-61
2021/12/22 14:24:20;;;;;;;15.28;6.80;;;;;;;-7.15;58.01;101248.36;1613379;86;21504;-61
2021/12/22 14:27:45;;;;;;;16.25;8.13;;;;;;;-7.18;58.28;101242.66;1684982;85;21207;-60
2021/12/22 14:30:52;;;;;;;20.77;8.43;;;;;;;-7.25;58.58;101250.86;1683538;84;21252;-60
2021/12/22 14:34:12;;;;;;;20.27;8.00;;;;;;;-7.28;59.10;101242.98;1673541;85;21232;-61
2021/12/22 14:37:19;;;;;;;13.05;6.42;;;;;;;-7.23;59.50;101250.37;1669041;85;21207;-61
2021/12/22 14:40:31;;;;;;;22.17;9.88;;;;;;;-7.19;59.61;101259.98;1656200;86;21587;-60
2021/12/22 14:43:54;;;;;;;27.90;12.58;;;;;;;-7.17;59.80;101254.17;1664422;85;21469;-60
2021/12/22 14:47:01;;;;;;;17.25;8.30;;;;;;;-7.17;60.09;101256.84;1683939;84;21259;-59
2021/12/22 14:50:08;;;;;;;17.07;8.48;;;;;;;-7.17;60.34;101264.81;1683562;84;21387;-61
2021/12/22 14:53:18;;;;;;;13.15;7.00;;;;;;;-7.19;60.38;101261.32;1683326;85;21213;-60
2021/12/22 14:56:26;;;;;;;13.03;6.53;;;;;;;-7.22;60.15;101266.73;1683342;84;21214;-60